cover

 

Get it on iTunes StoreListen on Apple Music

Speedy J

#Trackname / Key / BPM / Publish dateArtists, Remixers / Label
1 119 bpm, 9B / G major, 2016-11-18, Electronica,  0  25
2 132 bpm, 4B / Ab major, 2016-08-04, Trance,  1  7
3 132 bpm, 4B / Ab major, 2016-07-21, Trance,  6  1
4 110 bpm, 1B / B major, 2014-10-06, Techno,  0  26
5 125 bpm, 8A / A minor, 2014-09-26, Techno,  0  24
6 125 bpm, 8A / A minor, 2014-04-16, Techno,  0  23
7 127 bpm, / , 2014-02-10, Techno,  5  15
8 125 bpm, 7A / D minor, 2014-02-10, Techno,  4  15
9 125 bpm, 8A / A minor, 2014-01-20, Techno,  12  5
10 125 bpm, 8A / A minor, 2013-12-16, Techno,  0  26
11 126 bpm, 6B / Bb major, 2013-11-26, Techno,  32  4
12 140 bpm, 6A / G minor, 2013-11-07, Techno,  1  20
13 125 bpm, 8A / A minor, 2013-10-09, Techno,  3  25
14 125 bpm, 7A / D minor, 2013-02-25, Techno,  1  19
15 120 bpm, 8A / A minor, 2013-01-21, Techno,  3  16
16 110 bpm, 10A / B minor, 2012-05-21, Techno,  1  8
17 125 bpm, 8A / A minor, 2012-05-21, Techno,  10  8
18 125 bpm, 2B / F# major, 2012-04-30, Techno,  3  8
19 125 bpm, 1A / Ab minor, 2012-04-30, Techno,  0  8
20 130 bpm, 8B / C major, 2012-04-16, House,  1  4
21 130 bpm, 5A / C minor, 2012-04-16, House,  1  4
22 135 bpm, 7B / F major, 2012-02-28, Techno,  0  22
23 127 bpm, 8A / A minor, 2012-01-23, Techno,  2  17
24 122 bpm, 8A / A minor, 2011-06-30, Techno,  6  4
25 127 bpm, 3A / Bb minor, 2011-06-30, Techno,  5  4
26 125 bpm, 11B / A major, 2011-06-30, Techno,  9  4
27 125 bpm, 10A / B minor, 2011-06-30, Techno,  7  4
28 126 bpm, 5A / C minor, 2011-06-20, Techno,  6  4
29 124 bpm, 5A / C minor, 2011-06-20, Techno,  1  4
30 125 bpm, 6A / G minor, 2011-06-20, Techno,  4  4
31 127 bpm, 5A / C minor, 2011-06-20, DJ Tools,  2  4
32 127 bpm, 8A / A minor, 2011-06-13, Techno,  7  4
33 105 bpm, 3A / Bb minor, 2011-06-06, Electronica,  0  31
34 126 bpm, 11B / A major, 2011-05-26, Techno,  3  4
35 126 bpm, 8A / A minor, 2011-05-26, Techno,  11  4
36 120 bpm, 8A / A minor, 2011-03-04, Techno,  5  34
37 125 bpm, 3B / Db major, 2011-02-15, Techno,  12  4
38 125 bpm, 7A / D minor, 2010-12-20, Techno,  4  10
39 123 bpm, 11B / A major, 2010-12-10, Techno,  8  6
40 125 bpm, 8A / A minor, 2010-09-03, Techno,  10  7
41 167 bpm, 5A / C minor, 2010-09-03, DJ Tools,  3  7
42 124 bpm, 6B / Bb major, 2010-08-30, Techno,  6  3
43 123 bpm, 7B / F major, 2010-08-30, Techno,  1  3
44 171 bpm, 3A / Bb minor, 2010-06-28, DJ Tools,  1  5
45 125 bpm, 7A / D minor, 2010-05-31, Techno,  10  12
46 120 bpm, 6B / Bb major, 2010-05-21, Techno,  4  6
47 123 bpm, 8A / A minor, 2010-05-21, Techno,  4  6
48 125 bpm, 10A / B minor, 2010-05-21, Techno,  4  6
49 125 bpm, 1B / B major, 2010-05-21, Techno,  2  6
50 125 bpm, 8B / C major, 2010-05-21, Techno,  2  6
51 125 bpm, 9B / G major, 2010-05-21, Techno,  2  6
52 125 bpm, 7A / D minor, 2010-05-03, Techno,  16  2
53 128 bpm, 11B / A major, 2010-01-22, Techno,  5  5
54 124 bpm, 2A / Eb minor, 2009-12-09, Techno,  3  22
55 126 bpm, 8A / A minor, 2009-12-09, Techno,  4  22
56 128 bpm, 8A / A minor, 2009-12-09, Techno,  1  22
57 125 bpm, 8A / A minor, 2009-11-01, Techno,  23  2
58 159 bpm, 7A / D minor, 2009-10-13, Techno,  1  3
59 125 bpm, 8A / A minor, 2009-07-06, Techno,  14  4
60 125 bpm, 5B / Eb major, 2009-05-19, Hip-Hop,  2  9
61 125 bpm, 5B / Eb major, 2009-05-19, Hip-Hop,  2  9
62 125 bpm, 4A / F minor, 2009-05-19, Hip-Hop,  0  9
63 125 bpm, 1A / Ab minor, 2009-05-19, Hip-Hop,  0  9
64 125 bpm, 1A / Ab minor, 2009-05-19, Hip-Hop,  0  9
65 63 bpm, 12A / Db minor, 2009-05-19, Hip-Hop,  0  9
66 125 bpm, 1A / Ab minor, 2009-05-19, Hip-Hop,  0  9
67 63 bpm, 1A / Ab minor, 2009-05-19, Hip-Hop,  0  9
68 125 bpm, 5B / Eb major, 2009-05-19, Techno,  1  9
69 125 bpm, 2B / F# major, 2009-04-21, Techno,  12  4
70 110 bpm, 1B / B major, 2009-02-17, Techno,  8  4
71 110 bpm, 10A / B minor, 2009-02-17, Techno,  4  4
72 152 bpm, 1B / B major, 2009-02-17, Techno,  2  4
73 152 bpm, 3A / Bb minor, 2009-02-17, Techno,  1  4
74 126 bpm, 7A / D minor, 2009-01-28, Techno,  16  3
75 126 bpm, 8A / A minor, 2009-01-28, Techno,  15  3
76 126 bpm, 6A / G minor, 2009-01-28, DJ Tools,  1  3
77 123 bpm, 12A / Db minor, 2008-12-16, Techno,  11  3
78 123 bpm, 4A / F minor, 2008-12-16, DJ Tools,  1  3
79 123 bpm, 12A / Db minor, 2008-12-16, DJ Tools,  2  3
80 125 bpm, 5B / Eb major, 2008-11-18, Techno,  15  3
81 125 bpm, 1A / Ab minor, 2008-11-18, Techno,  3  3
82 125 bpm, 1A / Ab minor, 2008-11-18, Techno,  3  3
83 122 bpm, 8A / A minor, 2008-10-21, Techno,  32  2
84 123 bpm, 12A / Db minor, 2008-10-21, Techno,  7  2
85 120 bpm, 11A / F# minor, 2007-06-12, Techno,  23  3
86 70 bpm, 7B / F major, 2007-03-19, Techno,  4  2
87 141 bpm, 11B / A major, 2007-01-01, Techno,  1  2
88 139 bpm, 8A / A minor, 2007-01-01, Techno,  1  2
89 144 bpm, 11A / F# minor, 2007-01-01, Techno,  0  2
90 143 bpm, 8A / A minor, 2007-01-01, Techno,  1  2
91 143 bpm, 7A / D minor, 2007-01-01, Techno,  1  3
92 143 bpm, 8A / A minor, 2007-01-01, Techno,  0  3
93 72 bpm, 8B / C major, 2007-01-01, Techno,  0  3
94 143 bpm, 1A / Ab minor, 2007-01-01, Techno,  0  4
95 142 bpm, 8A / A minor, 2007-01-01, Techno,  2  4
96 143 bpm, 10B / D major, 2007-01-01, Techno,  1  4
97 145 bpm, 9A / E minor, 2007-01-01, Techno,  2  4
98 133 bpm, 6A / G minor, 2006-05-08, Techno,  8  2
99 123 bpm, 8A / A minor, 2005-11-14, Electronica,  0  11
100 123 bpm, 2A / Eb minor, 2005-11-14, Techno,  2  11
×

Sign in

Sign in to access your personalized pages, follow artists and labels you love, and create playlists fromyour favorite tracks.

Please wait...